Time;durP1;ratioP1;P1;durP2;ratioP2;P2;SDS_P1;SDS_P2;PMS_P1;PMS_P2;Temp;Humidity;BMP_temperature;BMP_pressure;BME280_temperature;BME280_humidity;BME280_pressure;Samples;Min_cycle;Max_cycle;Signal;HPM_P1;HPM_P2
2022/08/16 00:00:15;;;;;;;;;;;;;;;;;;1041114;28;19913;-76
2022/08/16 00:00:45;;;;;;;;;;;;;;;;;;1041090;28;20383;-76
2022/08/16 00:01:16;;;;;;;;;;;;;;;;;;1041040;28;19909;-76
2022/08/16 00:01:46;;;;;;;;;;;;;;;;;;1041027;28;19909;-76
2022/08/16 00:02:16;;;;;;;;;;;;;;;;;;1040759;28;20333;-76
2022/08/16 00:02:46;;;;;;;;;;;;;;;;;;1040572;28;19913;-76
2022/08/16 00:03:17;;;;;;;;;;;;;;;;;;1040781;28;20020;-76
2022/08/16 00:03:47;;;;;;;;;;;;;;;;;;1040699;28;19909;-76
2022/08/16 00:04:18;;;;;;;;;;;;;;;;;;1040261;28;19940;-76
2022/08/16 00:04:48;;;;;;;;;;;;;;;;;;1040520;28;19963;-76
2022/08/16 00:05:18;;;;;;;;;;;;;;;;;;1041165;28;19909;-76
2022/08/16 00:05:49;;;;;;;;;;;;;;;;;;1040913;28;19932;-76
2022/08/16 00:06:19;;;;;;;;;;;;;;;;;;1041109;28;19999;-76
2022/08/16 00:06:49;;;;;;;;;;;;;;;;;;1040948;28;20009;-76
2022/08/16 00:07:19;;;;;;;;;;;;;;;;;;1041118;28;19916;-76
2022/08/16 00:07:50;;;;;;;;;;;;;;;;;;1040966;28;19909;-76
2022/08/16 00:08:20;;;;;;;;;;;;;;;;;;1040708;28;20091;-76
2022/08/16 00:08:50;;;;;;;;;;;;;;;;;;1040658;28;20388;-76
2022/08/16 00:09:21;;;;;;;;;;;;;;;;;;1040797;28;20008;-76
2022/08/16 00:09:51;;;;;;;;;;;;;;;;;;1040633;28;20323;-76
2022/08/16 00:10:21;;;;;;;;;;;;;;;;;;1041117;28;19966;-76
2022/08/16 00:10:52;;;;;;;;;;;;;;;;;;1040937;28;19913;-76
2022/08/16 00:11:22;;;;;;;;;;;;;;;;;;1041039;28;19956;-76
2022/08/16 00:11:52;;;;;;;;;;;;;;;;;;1040926;28;19909;-76
2022/08/16 00:12:23;;;;;;;;;;;;;;;;;;1041014;28;20388;-76
2022/08/16 00:12:53;;;;;;;;;;;;;;;;;;1040978;28;19909;-76
2022/08/16 00:13:23;;;;;;;;;;;;;;;;;;1040978;28;19923;-76
2022/08/16 00:13:53;;;;;;;;;;;;;;;;;;1040500;28;20353;-76
2022/08/16 00:14:24;;;;;;;;;;;;;;;;;;1040705;28;20020;-76
2022/08/16 00:14:54;;;;;;;;;;;;;;;;;;1040676;28;19917;-76
2022/08/16 00:15:24;;;;;;;;;;;;;;;;;;1040760;28;20365;-76
2022/08/16 00:15:55;;;;;;;;;;;;;;;;;;1040972;28;19917;-76
2022/08/16 00:16:25;;;;;;;;;;;;;;;;;;1040625;28;19917;-76
2022/08/16 00:16:55;;;;;;;;;;;;;;;;;;1040565;28;19941;-76
2022/08/16 00:17:25;;;;;;;;;;;;;;;;;;1040705;28;19958;-76
2022/08/16 00:17:56;;;;;;;;;;;;;;;;;;1040713;28;19920;-76
2022/08/16 00:18:26;;;;;;;;;;;;;;;;;;1040645;28;19910;-76
2022/08/16 00:18:56;;;;;;;;;;;;;;;;;;1041054;28;19936;-76
2022/08/16 00:19:27;;;;;;;;;;;;;;;;;;1041011;28;19916;-76
2022/08/16 00:19:57;;;;;;;;;;;;;;;;;;1040965;28;20441;-76
2022/08/16 00:20:27;;;;;;;;;;;;;;;;;;1040884;28;19916;-76
2022/08/16 00:20:57;;;;;;;;;;;;;;;;;;1040990;28;20011;-76
2022/08/16 00:21:28;;;;;;;;;;;;;;;;;;1040346;28;19913;-76
2022/08/16 00:21:58;;;;;;;;;;;;;;;;;;1040663;28;20015;-76
2022/08/16 00:22:28;;;;;;;;;;;;;;;;;;1040698;28;19909;-76
2022/08/16 00:22:59;;;;;;;;;;;;;;;;;;1040648;28;19913;-76
2022/08/16 00:23:30;;;;;;;;;;;;;;;;;;1040548;28;19916;-76
2022/08/16 00:24:00;;;;;;;;;;;;;;;;;;1040710;28;19953;-76
2022/08/16 00:24:32;;;;;;;;;;;;;;;;;;1040472;28;19919;-76
2022/08/16 00:25:02;;;;;;;;;;;;;;;;;;1040727;28;19919;-76
2022/08/16 00:25:33;;;;;;;;;;;;;;;;;;1040921;28;19916;-76
2022/08/16 00:26:03;;;;;;;;;;;;;;;;;;1040621;28;19920;-76
2022/08/16 00:26:33;;;;;;;;;;;;;;;;;;1040543;28;20341;-76
2022/08/16 00:27:03;;;;;;;;;;;;;;;;;;1040723;28;19921;-76
2022/08/16 00:27:34;;;;;;;;;;;;;;;;;;1040473;28;19909;-76
2022/08/16 00:28:04;;;;;;;;;;;;;;;;;;1040741;28;19967;-76
2022/08/16 00:28:34;;;;;;;;;;;;;;;;;;1040601;28;20282;-76
2022/08/16 00:29:05;;;;;;;;;;;;;;;;;;1040734;28;20012;-76
2022/08/16 00:29:35;;;;;;;;;;;;;;;;;;1040881;28;19992;-76
2022/08/16 00:30:05;;;;;;;;;;;;;;;;;;1041061;28;20361;-76
2022/08/16 00:30:35;;;;;;;;;;;;;;;;;;1040469;28;19915;-76
2022/08/16 00:31:06;;;;;;;;;;;;;;;;;;1040684;28;20441;-76
2022/08/16 00:31:36;;;;;;;;;;;;;;;;;;1040648;28;19967;-76
2022/08/16 00:32:06;;;;;;;;;;;;;;;;;;1040435;28;19909;-76
2022/08/16 00:32:37;;;;;;;;;;;;;;;;;;1040507;28;19931;-76
2022/08/16 00:33:07;;;;;;;;;;;;;;;;;;1040646;28;20357;-76
2022/08/16 00:33:37;;;;;;;;;;;;;;;;;;1040565;28;19916;-76
2022/08/16 00:34:07;;;;;;;;;;;;;;;;;;1040917;28;19967;-76
2022/08/16 00:34:38;;;;;;;;;;;;;;;;;;1040486;28;20405;-76
2022/08/16 00:35:08;;;;;;;;;;;;;;;;;;1040664;28;19909;-76
2022/08/16 00:35:38;;;;;;;;;;;;;;;;;;1040587;28;20297;-76
2022/08/16 00:36:09;;;;;;;;;;;;;;;;;;1040614;28;19909;-76
2022/08/16 00:36:39;;;;;;;;;;;;;;;;;;1040409;28;19979;-76
2022/08/16 00:37:09;;;;;;;;;;;;;;;;;;1040682;28;19910;-76
2022/08/16 00:37:39;;;;;;;;;;;;;;;;;;1040300;28;19999;-76
2022/08/16 00:38:10;;;;;;;;;;;;;;;;;;1036469;28;19913;-76
2022/08/16 00:38:40;;;;;;;;;;;;;;;;;;1040606;28;20246;-76
2022/08/16 00:39:10;;;;;;;;;;;;;;;;;;1040658;28;20008;-76
2022/08/16 00:39:40;;;;;;;;;;;;;;;;;;1040559;28;19932;-76
2022/08/16 00:40:11;;;;;;;;;;;;;;;;;;1040536;28;20007;-76
2022/08/16 00:40:41;;;;;;;;;;;;;;;;;;1040573;28;19917;-76
2022/08/16 00:41:11;;;;;;;;;;;;;;;;;;1040591;28;19999;-76
2022/08/16 00:41:42;;;;;;;;;;;;;;;;;;1040523;28;19948;-76
2022/08/16 00:42:12;;;;;;;;;;;;;;;;;;1040942;28;19917;-76
2022/08/16 00:42:44;;;;;;;;;;;;;;;;;;1040872;28;20388;-76
2022/08/16 00:43:14;;;;;;;;;;;;;;;;;;1040957;28;19910;-76
2022/08/16 00:43:44;;;;;;;;;;;;;;;;;;1040813;28;19916;-76
2022/08/16 00:44:15;;;;;;;;;;;;;;;;;;1040846;28;20281;-76
2022/08/16 00:44:45;;;;;;;;;;;;;;;;;;1040929;28;20006;-76
2022/08/16 00:45:15;;;;;;;;;;;;;;;;;;1040284;28;19913;-76
2022/08/16 00:45:46;;;;;;;;;;;;;;;;;;1040604;28;20032;-76
2022/08/16 00:46:16;;;;;;;;;;;;;;;;;;1040451;28;20007;-76
2022/08/16 00:46:46;;;;;;;;;;;;;;;;;;1040641;28;19916;-76
2022/08/16 00:47:17;;;;;;;;;;;;;;;;;;1040578;28;20463;-76
2022/08/16 00:47:47;;;;;;;;;;;;;;;;;;1040632;28;19909;-76
2022/08/16 00:48:17;;;;;;;;;;;;;;;;;;1040844;28;19952;-76
2022/08/16 00:48:48;;;;;;;;;;;;;;;;;;1040863;28;19913;-76
2022/08/16 00:49:18;;;;;;;;;;;;;;;;;;1040615;28;20011;-76
2022/08/16 00:49:48;;;;;;;;;;;;;;;;;;1040278;28;20003;-76
2022/08/16 00:50:18;;;;;;;;;;;;;;;;;;1040602;28;19921;-76
2022/08/16 00:50:49;;;;;;;;;;;;;;;;;;1040393;28;19909;-76
2022/08/16 00:51:19;;;;;;;;;;;;;;;;;;1039583;28;19916;-76
2022/08/16 00:51:49;;;;;;;;;;;;;;;;;;1035233;28;20367;-76
2022/08/16 00:52:20;;;;;;;;;;;;;;;;;;1036352;28;19910;-76
2022/08/16 00:52:50;;;;;;;;;;;;;;;;;;1040483;28;19909;-76
2022/08/16 00:53:20;;;;;;;;;;;;;;;;;;1040533;28;19917;-76
2022/08/16 00:53:50;;;;;;;;;;;;;;;;;;1040179;28;19967;-74
2022/08/16 00:54:21;;;;;;;;;;;;;;;;;;1036323;28;19910;-76
2022/08/16 00:54:51;;;;;;;;;;;;;;;;;;1036439;28;19910;-76
2022/08/16 00:55:21;;;;;;;;;;;;;;;;;;1038689;28;19963;-76
2022/08/16 00:55:52;;;;;;;;;;;;;;;;;;1044619;28;20200;-76
2022/08/16 00:56:22;;;;;;;;;;;;;;;;;;1044869;28;19987;-76
2022/08/16 00:56:52;;;;;;;;;;;;;;;;;;1044484;28;19913;-76
2022/08/16 00:57:23;;;;;;;;;;;;;;;;;;1044696;28;20269;-76
2022/08/16 00:57:53;;;;;;;;;;;;;;;;;;1044592;28;19952;-76
2022/08/16 00:58:23;;;;;;;;;;;;;;;;;;1044583;28;19916;-76
2022/08/16 00:58:53;;;;;;;;;;;;;;;;;;1044958;28;20365;-76
2022/08/16 00:59:24;;;;;;;;;;;;;;;;;;1044959;28;19923;-76
2022/08/16 00:59:54;;;;;;;;;;;;;;;;;;1044914;28;19916;-76
2022/08/16 01:00:27;;;;;;;;;;;;;;;;;;1044474;28;20377;-76
2022/08/16 01:00:57;;;;;;;;;;;;;;;;;;1044715;28;19913;-76
2022/08/16 01:01:28;;;;;;;;;;;;;;;;;;1044548;28;20019;-76
2022/08/16 01:01:58;;;;;;;;;;;;;;;;;;1044672;28;19913;-76
2022/08/16 01:02:28;;;;;;;;;;;;;;;;;;1044798;28;19909;-76
2022/08/16 01:02:58;;;;;;;;;;;;;;;;;;1044531;28;19912;-76
2022/08/16 01:03:29;;;;;;;;;;;;;;;;;;1040622;28;20451;-76
2022/08/16 01:03:59;;;;;;;;;;;;;;;;;;1040401;28;19913;-76
2022/08/16 01:04:29;;;;;;;;;;;;;;;;;;1040274;28;20316;-76
2022/08/16 01:05:00;;;;;;;;;;;;;;;;;;1040870;28;19963;-76
2022/08/16 01:05:30;;;;;;;;;;;;;;;;;;1040708;28;19909;-76
2022/08/16 01:06:00;;;;;;;;;;;;;;;;;;1040848;28;19913;-76
2022/08/16 01:06:30;;;;;;;;;;;;;;;;;;1040553;28;19963;-76
2022/08/16 01:07:01;;;;;;;;;;;;;;;;;;1040437;28;20012;-76
2022/08/16 01:07:31;;;;;;;;;;;;;;;;;;1040317;28;19928;-76
2022/08/16 01:08:01;;;;;;;;;;;;;;;;;;1040471;28;19913;-76
2022/08/16 01:08:32;;;;;;;;;;;;;;;;;;1040233;28;19924;-76
2022/08/16 01:09:04;;;;;;;;;;;;;;;;;;1040506;28;20291;-76
2022/08/16 01:09:35;;;;;;;;;;;;;;;;;;1040724;28;20012;-76
2022/08/16 01:10:05;;;;;;;;;;;;;;;;;;1040772;28;19910;-76
2022/08/16 01:10:36;;;;;;;;;;;;;;;;;;1040710;28;19931;-76
2022/08/16 01:11:06;;;;;;;;;;;;;;;;;;1040893;28;20371;-76
2022/08/16 01:11:36;;;;;;;;;;;;;;;;;;1040287;28;19960;-76
2022/08/16 01:12:07;;;;;;;;;;;;;;;;;;1040455;28;19915;-76
2022/08/16 01:12:37;;;;;;;;;;;;;;;;;;1040337;28;19909;-76
2022/08/16 01:13:08;;;;;;;;;;;;;;;;;;1040287;28;20275;-76
2022/08/16 01:13:38;;;;;;;;;;;;;;;;;;1040410;28;19940;-76
2022/08/16 01:14:09;;;;;;;;;;;;;;;;;;1036048;28;20004;-76
2022/08/16 01:14:39;;;;;;;;;;;;;;;;;;1036356;28;20440;-76
2022/08/16 01:15:09;;;;;;;;;;;;;;;;;;1036307;28;19943;-76
2022/08/16 01:15:39;;;;;;;;;;;;;;;;;;1033600;28;19914;-76
2022/08/16 01:16:10;;;;;;;;;;;;;;;;;;1036263;28;20336;-76
2022/08/16 01:16:40;;;;;;;;;;;;;;;;;;1039504;28;19916;-76
2022/08/16 01:17:10;;;;;;;;;;;;;;;;;;1040801;28;19952;-76
2022/08/16 01:17:41;;;;;;;;;;;;;;;;;;1040600;28;19976;-76
2022/08/16 01:18:11;;;;;;;;;;;;;;;;;;1040679;28;19917;-76
2022/08/16 01:18:42;;;;;;;;;;;;;;;;;;1040660;28;19909;-76
2022/08/16 01:19:13;;;;;;;;;;;;;;;;;;1040589;28;19936;-76
2022/08/16 01:19:43;;;;;;;;;;;;;;;;;;1040637;28;19916;-76
2022/08/16 01:20:13;;;;;;;;;;;;;;;;;;1040592;28;19962;-76
2022/08/16 01:20:44;;;;;;;;;;;;;;;;;;1040199;28;20369;-76
2022/08/16 01:21:14;;;;;;;;;;;;;;;;;;1040326;28;19909;-76
2022/08/16 01:21:45;;;;;;;;;;;;;;;;;;1040339;28;19909;-76
2022/08/16 01:22:16;;;;;;;;;;;;;;;;;;1040257;28;19913;-76
2022/08/16 01:22:47;;;;;;;;;;;;;;;;;;1040398;28;19910;-76
2022/08/16 01:23:17;;;;;;;;;;;;;;;;;;1040821;28;19909;-76
2022/08/16 01:23:48;;;;;;;;;;;;;;;;;;1040610;28;19909;-76
2022/08/16 01:24:18;;;;;;;;;;;;;;;;;;1040703;28;20415;-76
2022/08/16 01:24:48;;;;;;;;;;;;;;;;;;1040635;28;20351;-76
2022/08/16 01:25:19;;;;;;;;;;;;;;;;;;1040780;28;19909;-76
2022/08/16 01:25:49;;;;;;;;;;;;;;;;;;1040509;28;19909;-76
2022/08/16 01:26:19;;;;;;;;;;;;;;;;;;1040515;28;19909;-76
2022/08/16 01:26:50;;;;;;;;;;;;;;;;;;1040193;28;19909;-76
2022/08/16 01:27:20;;;;;;;;;;;;;;;;;;1040373;28;19917;-76
2022/08/16 01:27:50;;;;;;;;;;;;;;;;;;1040224;28;20340;-76
2022/08/16 01:28:21;;;;;;;;;;;;;;;;;;1040399;28;19921;-76
2022/08/16 01:28:51;;;;;;;;;;;;;;;;;;1040175;28;19932;-76
2022/08/16 01:29:21;;;;;;;;;;;;;;;;;;1040462;28;20280;-76
2022/08/16 01:29:52;;;;;;;;;;;;;;;;;;1040159;28;19998;-76
2022/08/16 01:30:22;;;;;;;;;;;;;;;;;;1040254;28;19940;-76
2022/08/16 01:30:53;;;;;;;;;;;;;;;;;;1040169;28;20523;-76
2022/08/16 01:31:23;;;;;;;;;;;;;;;;;;1040364;28;19924;-76
2022/08/16 01:31:53;;;;;;;;;;;;;;;;;;1039787;28;19916;-76
2022/08/16 01:32:24;;;;;;;;;;;;;;;;;;1039458;28;20055;-76
2022/08/16 01:32:54;;;;;;;;;;;;;;;;;;1042379;28;19927;-76
2022/08/16 01:33:24;;;;;;;;;;;;;;;;;;1042592;28;20313;-76
2022/08/16 01:33:54;;;;;;;;;;;;;;;;;;1040168;28;19952;-76
2022/08/16 01:34:25;;;;;;;;;;;;;;;;;;1037289;28;19972;-76
2022/08/16 01:34:55;;;;;;;;;;;;;;;;;;1036278;28;20401;-76
2022/08/16 01:35:25;;;;;;;;;;;;;;;;;;1038209;28;20459;-76
2022/08/16 01:35:56;;;;;;;;;;;;;;;;;;1040332;28;19969;-76
2022/08/16 01:36:26;;;;;;;;;;;;;;;;;;1038712;28;20045;-76
2022/08/16 01:36:57;;;;;;;;;;;;;;;;;;1036139;28;19956;-76
2022/08/16 01:37:27;;;;;;;;;;;;;;;;;;1036486;28;19917;-76
2022/08/16 01:37:57;;;;;;;;;;;;;;;;;;1039192;28;19924;-76
2022/08/16 01:38:27;;;;;;;;;;;;;;;;;;1039895;28;19960;-76
2022/08/16 01:38:58;;;;;;;;;;;;;;;;;;1039931;28;19927;-76
2022/08/16 01:39:28;;;;;;;;;;;;;;;;;;1038938;28;19913;-76
2022/08/16 01:39:58;;;;;;;;;;;;;;;;;;1039528;28;19913;-76
2022/08/16 01:40:29;;;;;;;;;;;;;;;;;;1039792;28;19917;-76
2022/08/16 01:40:59;;;;;;;;;;;;;;;;;;1039561;28;19913;-76
2022/08/16 01:41:29;;;;;;;;;;;;;;;;;;1039639;28;19913;-76
2022/08/16 01:42:00;;;;;;;;;;;;;;;;;;1040176;28;20028;-76
2022/08/16 01:42:30;;;;;;;;;;;;;;;;;;1039148;28;19924;-76
2022/08/16 01:43:01;;;;;;;;;;;;;;;;;;1040227;28;20316;-76
2022/08/16 01:43:31;;;;;;;;;;;;;;;;;;1039008;28;19913;-76
2022/08/16 01:44:01;;;;;;;;;;;;;;;;;;1039894;28;20019;-76
2022/08/16 01:44:32;;;;;;;;;;;;;;;;;;1042640;28;19948;-76
2022/08/16 01:45:02;;;;;;;;;;;;;;;;;;1043178;28;20015;-76
2022/08/16 01:45:32;;;;;;;;;;;;;;;;;;1037576;28;20036;-76
2022/08/16 01:46:03;;;;;;;;;;;;;;;;;;1037086;28;19924;-76
2022/08/16 01:46:33;;;;;;;;;;;;;;;;;;1038710;28;20504;-76
2022/08/16 01:47:03;;;;;;;;;;;;;;;;;;1036852;28;19913;-76
2022/08/16 01:47:34;;;;;;;;;;;;;;;;;;1040053;28;19913;-76
2022/08/16 01:48:04;;;;;;;;;;;;;;;;;;1039225;28;19920;-76
2022/08/16 01:48:34;;;;;;;;;;;;;;;;;;1035172;28;19917;-76
2022/08/16 01:49:04;;;;;;;;;;;;;;;;;;1035535;28;19961;-76
2022/08/16 01:49:35;;;;;;;;;;;;;;;;;;1035165;28;19916;-76
2022/08/16 01:50:05;;;;;;;;;;;;;;;;;;1035558;28;19980;-76
2022/08/16 01:50:35;;;;;;;;;;;;;;;;;;1044223;28;19916;-76
2022/08/16 01:51:05;;;;;;;;;;;;;;;;;;1042986;28;19908;-76
2022/08/16 01:51:36;;;;;;;;;;;;;;;;;;1040152;28;19913;-76
2022/08/16 01:52:06;;;;;;;;;;;;;;;;;;1039695;28;19913;-76
2022/08/16 01:52:36;;;;;;;;;;;;;;;;;;1040406;28;20358;-76
2022/08/16 01:53:07;;;;;;;;;;;;;;;;;;1039283;28;19913;-76
2022/08/16 01:53:37;;;;;;;;;;;;;;;;;;1040177;28;19971;-76
2022/08/16 01:54:07;;;;;;;;;;;;;;;;;;1039704;28;19909;-76
2022/08/16 01:54:38;;;;;;;;;;;;;;;;;;1039795;28;19909;-76
2022/08/16 01:55:08;;;;;;;;;;;;;;;;;;1040510;28;19913;-76
2022/08/16 01:55:40;;;;;;;;;;;;;;;;;;1040370;28;19936;-76
2022/08/16 01:56:10;;;;;;;;;;;;;;;;;;1039094;28;19909;-76
2022/08/16 01:56:40;;;;;;;;;;;;;;;;;;1034703;28;20320;-76
2022/08/16 01:57:11;;;;;;;;;;;;;;;;;;1034620;28;19909;-76
2022/08/16 01:57:42;;;;;;;;;;;;;;;;;;1032019;28;19914;-76
2022/08/16 01:58:12;;;;;;;;;;;;;;;;;;1037865;28;19910;-76
2022/08/16 01:58:42;;;;;;;;;;;;;;;;;;1040177;28;19917;-76
2022/08/16 01:59:12;;;;;;;;;;;;;;;;;;1038443;28;19957;-76
2022/08/16 01:59:43;;;;;;;;;;;;;;;;;;1037844;28;19917;-76
2022/08/16 02:00:14;;;;;;;;;;;;;;;;;;1039527;28;19917;-76
2022/08/16 02:00:44;;;;;;;;;;;;;;;;;;1040663;28;19909;-76
2022/08/16 02:01:15;;;;;;;;;;;;;;;;;;1039511;28;20302;-76
2022/08/16 02:01:45;;;;;;;;;;;;;;;;;;1037300;28;20293;-76
2022/08/16 02:02:15;;;;;;;;;;;;;;;;;;1037552;28;19909;-76
2022/08/16 02:02:45;;;;;;;;;;;;;;;;;;1047030;28;20390;-76
2022/08/16 02:03:16;;;;;;;;;;;;;;;;;;1045457;28;19923;-76
2022/08/16 02:03:46;;;;;;;;;;;;;;;;;;1040407;28;20352;-76
2022/08/16 02:04:16;;;;;;;;;;;;;;;;;;1038766;28;19916;-76
2022/08/16 02:04:47;;;;;;;;;;;;;;;;;;1039966;28;19996;-76
2022/08/16 02:05:17;;;;;;;;;;;;;;;;;;1039619;28;19909;-76
2022/08/16 02:05:47;;;;;;;;;;;;;;;;;;1039059;28;19917;-76
2022/08/16 02:06:18;;;;;;;;;;;;;;;;;;1039578;28;19909;-76
2022/08/16 02:06:48;;;;;;;;;;;;;;;;;;1040106;28;20373;-76
2022/08/16 02:07:18;;;;;;;;;;;;;;;;;;1039514;28;19963;-76
2022/08/16 02:07:49;;;;;;;;;;;;;;;;;;1034800;28;20180;-76
2022/08/16 02:08:19;;;;;;;;;;;;;;;;;;1035332;28;19909;-76
2022/08/16 02:08:49;;;;;;;;;;;;;;;;;;1039732;28;20412;-76
2022/08/16 02:09:19;;;;;;;;;;;;;;;;;;1039382;28;19921;-76
2022/08/16 02:09:50;;;;;;;;;;;;;;;;;;1040309;28;19916;-76
2022/08/16 02:10:20;;;;;;;;;;;;;;;;;;1039491;28;19927;-76
2022/08/16 02:10:51;;;;;;;;;;;;;;;;;;1040104;28;19909;-76
2022/08/16 02:11:21;;;;;;;;;;;;;;;;;;1038586;28;19957;-76
2022/08/16 02:11:51;;;;;;;;;;;;;;;;;;1038470;28;19936;-76
2022/08/16 02:12:22;;;;;;;;;;;;;;;;;;1039457;28;19917;-76
2022/08/16 02:12:52;;;;;;;;;;;;;;;;;;1040266;28;19924;-76
2022/08/16 02:13:22;;;;;;;;;;;;;;;;;;1037815;28;19979;-76
2022/08/16 02:13:54;;;;;;;;;;;;;;;;;;1038629;28;19987;-76
2022/08/16 02:14:25;;;;;;;;;;;;;;;;;;1039702;28;20491;-76
2022/08/16 02:14:55;;;;;;;;;;;;;;;;;;1039825;28;19917;-76
2022/08/16 02:15:25;;;;;;;;;;;;;;;;;;1037132;28;19960;-76
2022/08/16 02:15:56;;;;;;;;;;;;;;;;;;1036404;28;19920;-76
2022/08/16 02:16:26;;;;;;;;;;;;;;;;;;1037744;28;20004;-76
2022/08/16 02:16:57;;;;;;;;;;;;;;;;;;1034033;28;19917;-76
2022/08/16 02:17:27;;;;;;;;;;;;;;;;;;1032314;28;20012;-76
2022/08/16 02:17:57;;;;;;;;;;;;;;;;;;1032478;28;20004;-76
2022/08/16 02:18:28;;;;;;;;;;;;;;;;;;1036557;28;19918;-76
2022/08/16 02:18:58;;;;;;;;;;;;;;;;;;1035994;28;20036;-76
2022/08/16 02:19:28;;;;;;;;;;;;;;;;;;1038946;28;19948;-76
2022/08/16 02:19:59;;;;;;;;;;;;;;;;;;1041174;28;20365;-76
2022/08/16 02:20:29;;;;;;;;;;;;;;;;;;1041457;28;19956;-76
2022/08/16 02:20:59;;;;;;;;;;;;;;;;;;1042169;28;19913;-76
2022/08/16 02:21:30;;;;;;;;;;;;;;;;;;1039826;28;20324;-76
2022/08/16 02:22:02;;;;;;;;;;;;;;;;;;1039942;28;20392;-76
2022/08/16 02:22:32;;;;;;;;;;;;;;;;;;1038490;28;20369;-76
2022/08/16 02:23:03;;;;;;;;;;;;;;;;;;1039889;28;19920;-76
2022/08/16 02:23:33;;;;;;;;;;;;;;;;;;1039248;28;19914;-76
2022/08/16 02:24:03;;;;;;;;;;;;;;;;;;1041748;28;19917;-76
2022/08/16 02:24:34;;;;;;;;;;;;;;;;;;1042198;28;19913;-76
2022/08/16 02:25:04;;;;;;;;;;;;;;;;;;1041424;28;19913;-76
2022/08/16 02:25:34;;;;;;;;;;;;;;;;;;1039699;28;19913;-76
2022/08/16 02:26:05;;;;;;;;;;;;;;;;;;1041544;28;19909;-76
2022/08/16 02:26:35;;;;;;;;;;;;;;;;;;1042168;28;19967;-76
2022/08/16 02:27:06;;;;;;;;;;;;;;;;;;1041323;28;20383;-76
2022/08/16 02:27:36;;;;;;;;;;;;;;;;;;1040090;28;19916;-76
2022/08/16 02:28:06;;;;;;;;;;;;;;;;;;1039090;28;19917;-76
2022/08/16 02:28:37;;;;;;;;;;;;;;;;;;1041485;28;20288;-76
2022/08/16 02:29:07;;;;;;;;;;;;;;;;;;1042260;28;19909;-76
2022/08/16 02:29:37;;;;;;;;;;;;;;;;;;1040664;28;19957;-76
2022/08/16 02:30:07;;;;;;;;;;;;;;;;;;1040366;28;19916;-76
2022/08/16 02:30:38;;;;;;;;;;;;;;;;;;1041746;28;20320;-76
2022/08/16 02:31:08;;;;;;;;;;;;;;;;;;1041142;28;19917;-76
2022/08/16 02:31:39;;;;;;;;;;;;;;;;;;1041388;28;19913;-76
2022/08/16 02:32:10;;;;;;;;;;;;;;;;;;1038697;28;19921;-76
2022/08/16 02:32:40;;;;;;;;;;;;;;;;;;1041427;28;19913;-76
2022/08/16 02:33:10;;;;;;;;;;;;;;;;;;1039562;28;19962;-76
2022/08/16 02:33:41;;;;;;;;;;;;;;;;;;1040899;28;19913;-76
2022/08/16 02:34:11;;;;;;;;;;;;;;;;;;1042416;28;19920;-76
2022/08/16 02:34:41;;;;;;;;;;;;;;;;;;1042306;28;19974;-76
2022/08/16 02:35:12;;;;;;;;;;;;;;;;;;1042150;28;20015;-76
2022/08/16 02:35:42;;;;;;;;;;;;;;;;;;1039013;28;19983;-76
2022/08/16 02:36:12;;;;;;;;;;;;;;;;;;1040775;28;19917;-76
2022/08/16 02:36:42;;;;;;;;;;;;;;;;;;1040907;28;19921;-76
2022/08/16 02:37:13;;;;;;;;;;;;;;;;;;1039450;28;20396;-76
2022/08/16 02:37:43;;;;;;;;;;;;;;;;;;1042066;28;19913;-76
2022/08/16 02:38:13;;;;;;;;;;;;;;;;;;1045421;28;19913;-76
2022/08/16 02:38:44;;;;;;;;;;;;;;;;;;1045270;28;19920;-76
2022/08/16 02:39:14;;;;;;;;;;;;;;;;;;1045321;28;19959;-76
2022/08/16 02:39:44;;;;;;;;;;;;;;;;;;1041642;28;20003;-76
2022/08/16 02:40:17;;;;;;;;;;;;;;;;;;1041140;28;19919;-76
2022/08/16 02:40:47;;;;;;;;;;;;;;;;;;1042069;28;20392;-76
2022/08/16 02:41:18;;;;;;;;;;;;;;;;;;1041826;28;19913;-76
2022/08/16 02:41:48;;;;;;;;;;;;;;;;;;1045884;28;19955;-76
2022/08/16 02:42:19;;;;;;;;;;;;;;;;;;1044379;28;19940;-76
2022/08/16 02:42:49;;;;;;;;;;;;;;;;;;1039077;28;19940;-76
2022/08/16 02:43:19;;;;;;;;;;;;;;;;;;1040781;28;20059;-76
2022/08/16 02:43:50;;;;;;;;;;;;;;;;;;1041726;28;19909;-76
2022/08/16 02:44:20;;;;;;;;;;;;;;;;;;1041890;28;20391;-76
2022/08/16 02:44:50;;;;;;;;;;;;;;;;;;1043075;28;19909;-76
2022/08/16 02:45:21;;;;;;;;;;;;;;;;;;1041825;28;19920;-76
2022/08/16 02:45:51;;;;;;;;;;;;;;;;;;1041653;28;19913;-76
2022/08/16 02:46:22;;;;;;;;;;;;;;;;;;1041825;28;19916;-76
2022/08/16 02:46:52;;;;;;;;;;;;;;;;;;1039405;28;19917;-76
2022/08/16 02:47:22;;;;;;;;;;;;;;;;;;1034092;28;19921;-76
2022/08/16 02:47:52;;;;;;;;;;;;;;;;;;1039591;28;20517;-76
2022/08/16 02:48:23;;;;;;;;;;;;;;;;;;1034125;28;19920;-76
2022/08/16 02:48:53;;;;;;;;;;;;;;;;;;1037295;28;19924;-76
2022/08/16 02:49:23;;;;;;;;;;;;;;;;;;1035336;28;19921;-76
2022/08/16 02:49:54;;;;;;;;;;;;;;;;;;1037819;28;19930;-76
2022/08/16 02:50:24;;;;;;;;;;;;;;;;;;1036254;28;19952;-76
2022/08/16 02:50:57;;;;;;;;;;;;;;;;;;1037901;28;20436;-76
2022/08/16 02:51:27;;;;;;;;;;;;;;;;;;1040940;28;20376;-76
2022/08/16 02:51:57;;;;;;;;;;;;;;;;;;1041275;28;19913;-76
2022/08/16 02:52:27;;;;;;;;;;;;;;;;;;1041067;28;19944;-76
2022/08/16 02:52:58;;;;;;;;;;;;;;;;;;1041729;28;20543;-76
2022/08/16 02:53:28;;;;;;;;;;;;;;;;;;1039576;28;20024;-76
2022/08/16 02:53:58;;;;;;;;;;;;;;;;;;1040900;28;19916;-76
2022/08/16 02:54:28;;;;;;;;;;;;;;;;;;1038247;28;20283;-76
2022/08/16 02:54:59;;;;;;;;;;;;;;;;;;1041444;28;19913;-76
2022/08/16 02:55:29;;;;;;;;;;;;;;;;;;1039267;28;19972;-77
2022/08/16 02:55:59;;;;;;;;;;;;;;;;;;1042011;28;20363;-76
2022/08/16 02:56:30;;;;;;;;;;;;;;;;;;1041109;28;19917;-76
2022/08/16 02:57:00;;;;;;;;;;;;;;;;;;1042209;28;19974;-76
2022/08/16 02:57:30;;;;;;;;;;;;;;;;;;1039132;28;19918;-76
2022/08/16 02:58:00;;;;;;;;;;;;;;;;;;1041899;28;19913;-77
2022/08/16 02:58:31;;;;;;;;;;;;;;;;;;1041045;28;19913;-76
2022/08/16 02:59:01;;;;;;;;;;;;;;;;;;1041508;28;20265;-76
2022/08/16 02:59:32;;;;;;;;;;;;;;;;;;1041730;28;19920;-76
2022/08/16 03:00:07;;;;;;;;;;;;;;;;;;1041538;28;19979;-76
2022/08/16 03:00:38;;;;;;;;;;;;;;;;;;1044401;28;19912;-76
2022/08/16 03:01:09;;;;;;;;;;;;;;;;;;1044936;28;20458;-76
2022/08/16 03:01:40;;;;;;;;;;;;;;;;;;1045731;28;20283;-76
2022/08/16 03:02:10;;;;;;;;;;;;;;;;;;1044652;28;19916;-76
2022/08/16 03:02:40;;;;;;;;;;;;;;;;;;1042071;28;20769;-76
2022/08/16 03:03:11;;;;;;;;;;;;;;;;;;1041524;28;19959;-76
2022/08/16 03:03:42;;;;;;;;;;;;;;;;;;1040995;28;19916;-76
2022/08/16 03:04:12;;;;;;;;;;;;;;;;;;1037237;28;19917;-76
2022/08/16 03:04:43;;;;;;;;;;;;;;;;;;1038267;28;19952;-76
2022/08/16 03:05:13;;;;;;;;;;;;;;;;;;1042600;28;19912;-76
2022/08/16 03:05:44;;;;;;;;;;;;;;;;;;1038950;28;19913;-76
2022/08/16 03:06:18;;;;;;;;;;;;;;;;;;1039724;28;19924;-76
2022/08/16 03:06:48;;;;;;;;;;;;;;;;;;1038541;28;19917;-76
2022/08/16 03:07:18;;;;;;;;;;;;;;;;;;1041482;28;20265;-76
2022/08/16 03:07:48;;;;;;;;;;;;;;;;;;1041558;28;19919;-77
2022/08/16 03:08:19;;;;;;;;;;;;;;;;;;1038084;28;19909;-77
2022/08/16 03:08:49;;;;;;;;;;;;;;;;;;1040169;28;20036;-76
2022/08/16 03:09:19;;;;;;;;;;;;;;;;;;1039851;28;21507;-76
2022/08/16 03:09:50;;;;;;;;;;;;;;;;;;1041591;28;19918;-76
2022/08/16 03:10:20;;;;;;;;;;;;;;;;;;1040400;28;19917;-77
2022/08/16 03:10:50;;;;;;;;;;;;;;;;;;1042056;28;19940;-76
2022/08/16 03:11:21;;;;;;;;;;;;;;;;;;1041117;28;19925;-76
2022/08/16 03:11:51;;;;;;;;;;;;;;;;;;1041621;28;19913;-76
2022/08/16 03:12:22;;;;;;;;;;;;;;;;;;1041371;28;20004;-76
2022/08/16 03:12:52;;;;;;;;;;;;;;;;;;1042313;28;19917;-76
2022/08/16 03:13:22;;;;;;;;;;;;;;;;;;1037061;28;19925;-77
2022/08/16 03:13:52;;;;;;;;;;;;;;;;;;1040719;28;19921;-76
2022/08/16 03:14:23;;;;;;;;;;;;;;;;;;1040222;28;19924;-76
2022/08/16 03:14:53;;;;;;;;;;;;;;;;;;1042027;28;19916;-76
2022/08/16 03:15:23;;;;;;;;;;;;;;;;;;1040103;28;20683;-76
2022/08/16 03:15:54;;;;;;;;;;;;;;;;;;1038623;28;20352;-76
2022/08/16 03:16:24;;;;;;;;;;;;;;;;;;1034405;28;20377;-77
2022/08/16 03:16:54;;;;;;;;;;;;;;;;;;1039954;28;19929;-76
2022/08/16 03:17:25;;;;;;;;;;;;;;;;;;1039567;28;20004;-76
2022/08/16 03:17:55;;;;;;;;;;;;;;;;;;1042259;28;20364;-76
2022/08/16 03:18:25;;;;;;;;;;;;;;;;;;1040709;28;20067;-76
2022/08/16 03:18:56;;;;;;;;;;;;;;;;;;1042400;28;19929;-76
2022/08/16 03:19:26;;;;;;;;;;;;;;;;;;1040582;28;20433;-76
2022/08/16 03:19:56;;;;;;;;;;;;;;;;;;1041741;28;19917;-76
2022/08/16 03:20:27;;;;;;;;;;;;;;;;;;1038996;28;20468;-76
2022/08/16 03:20:58;;;;;;;;;;;;;;;;;;1035783;28;19925;-76
2022/08/16 03:21:28;;;;;;;;;;;;;;;;;;1036344;28;19918;-76
2022/08/16 03:21:59;;;;;;;;;;;;;;;;;;1037745;28;19944;-76
2022/08/16 03:22:29;;;;;;;;;;;;;;;;;;1038830;28;20408;-76
2022/08/16 03:23:00;;;;;;;;;;;;;;;;;;1040916;28;19917;-76
2022/08/16 03:23:30;;;;;;;;;;;;;;;;;;1038391;28;19917;-76
2022/08/16 03:24:00;;;;;;;;;;;;;;;;;;1039784;28;20008;-76
2022/08/16 03:24:30;;;;;;;;;;;;;;;;;;1039031;28;19918;-76
2022/08/16 03:25:01;;;;;;;;;;;;;;;;;;1041755;28;20395;-76
2022/08/16 03:25:31;;;;;;;;;;;;;;;;;;1040767;28;19964;-76
2022/08/16 03:26:01;;;;;;;;;;;;;;;;;;1041492;28;19944;-76
2022/08/16 03:26:32;;;;;;;;;;;;;;;;;;1041413;28;20046;-76
2022/08/16 03:27:02;;;;;;;;;;;;;;;;;;1036928;28;20431;-76
2022/08/16 03:27:32;;;;;;;;;;;;;;;;;;1037446;28;19922;-76